SLJE/SJS METAR and TAF weather

Enter ICAO airport designator
Station Type Date Time Source
SLJE METAR 2021/05/11 18:00 UTC NOAA

SLJE 111800Z 18006KT 9999 OVC013 21/18 Q1020


Station Type Date Time Source
SLJE Decoded METAR 2021/05/11 18:00 UTC NOAA

San Jose De Chiquitos, Bolivia (SLJE) 17-48S 060-44W
May 11, 2021 - 02:00 PM EDT / 2021.05.11 1800 UTC
Wind: from the S (180 degrees) at 7 MPH (6 KT):0
Visibility: greater than 7 mile(s):0
Sky conditions: overcast
Temperature: 69 F (21 C)
Dew Point: 64 F (18 C)
Relative Humidity: 82%
Pressure (altimeter): 30.12 in. Hg (1020 hPa)
ob: SLJE 111800Z 18006KT 9999 OVC013 21/18 Q1020
cycle: 18

Station Type Date Time Source
SLJE TAF 2009/01/07 11:00 UTC NOAA

METAR SLJE 071100Z 00000KT 9999 SKC 21/18 Q1014

Example: see airport list